Time;durP1;ratioP1;P1;durP2;ratioP2;P2;SDS_P1;SDS_P2;PMS_P1;PMS_P2;Temp;Humidity;BMP_temperature;BMP_pressure;BME280_temperature;BME280_humidity;BME280_pressure;Samples;Min_cycle;Max_cycle;Signal;HPM_P1;HPM_P2
2022/09/12 00:00:04;;;;;;;19.38;14.75;;;15.30;99.90;;;;;;2131254;27;20041;-74
2022/09/12 00:01:15;;;;;;;16.25;13.75;;;15.30;99.90;;;;;;2131499;27;20106;-75
2022/09/12 00:02:15;;;;;;;17.38;14.20;;;15.30;99.90;;;;;;2132296;27;20027;-75
2022/09/12 00:03:16;;;;;;;18.00;14.77;;;15.30;99.90;;;;;;2131681;27;20026;-75
2022/09/12 00:04:17;;;;;;;20.50;14.75;;;15.30;99.90;;;;;;2132265;27;20389;-75
2022/09/12 00:05:18;;;;;;;19.23;15.30;;;15.30;99.90;;;;;;2132398;27;20434;-75
2022/09/12 00:06:22;;;;;;;18.77;15.02;;;15.30;99.90;;;;;;2132203;27;20113;-75
2022/09/12 00:07:23;;;;;;;20.52;16.17;;;15.30;99.90;;;;;;2124091;27;20035;-75
2022/09/12 00:08:23;;;;;;;20.60;16.50;;;15.30;99.90;;;;;;2131891;27;20718;-75
2022/09/12 00:09:24;;;;;;;19.63;16.15;;;15.30;99.90;;;;;;2132456;27;20404;-75
2022/09/12 00:10:25;;;;;;;21.10;16.08;;;15.30;99.90;;;;;;2132716;27;20489;-75
2022/09/12 00:11:26;;;;;;;18.45;15.45;;;15.30;99.90;;;;;;2132622;27;20105;-75
2022/09/12 00:12:27;;;;;;;18.42;14.80;;;15.30;99.90;;;;;;2134094;27;20031;-75
2022/09/12 00:13:27;;;;;;;17.23;14.18;;;15.30;99.90;;;;;;2133773;27;20027;-75
2022/09/12 00:14:28;;;;;;;18.98;14.48;;;15.30;99.90;;;;;;2132811;27;20027;-74
2022/09/12 00:15:29;;;;;;;17.80;14.00;;;15.30;99.90;;;;;;2133639;27;20045;-73
2022/09/12 00:16:31;;;;;;;21.20;16.25;;;15.30;99.90;;;;;;2132713;27;20019;-74
2022/09/12 00:17:37;;;;;;;20.38;15.32;;;15.30;99.90;;;;;;2120520;27;20062;-73
2022/09/12 00:18:38;;;;;;;17.50;14.10;;;15.30;99.90;;;;;;2123088;27;20379;-74
2022/09/12 00:19:38;;;;;;;17.90;14.30;;;15.40;99.90;;;;;;2124204;27;20070;-73
2022/09/12 00:20:44;;;;;;;18.05;14.55;;;15.40;99.90;;;;;;2123173;27;20023;-73
2022/09/12 00:21:45;;;;;;;18.33;14.80;;;15.40;99.90;;;;;;2126634;27;20031;-73
2022/09/12 00:22:45;;;;;;;18.98;14.65;;;15.40;99.90;;;;;;2127108;27;20034;-74
2022/09/12 00:23:47;;;;;;;18.48;14.55;;;15.40;99.90;;;;;;2117076;27;20031;-74
2022/09/12 00:24:47;;;;;;;18.60;14.20;;;15.40;99.90;;;;;;2121873;27;20023;-74
2022/09/12 00:25:48;;;;;;;16.60;13.80;;;15.40;99.90;;;;;;2130684;27;20058;-74
2022/09/12 00:26:49;;;;;;;17.50;13.93;;;15.40;99.90;;;;;;2131262;27;20507;-74
2022/09/12 00:27:49;;;;;;;18.35;15.05;;;15.40;99.90;;;;;;2130231;27;20078;-74
2022/09/12 00:28:50;;;;;;;18.92;15.02;;;15.40;99.90;;;;;;2130493;27;20034;-74
2022/09/12 00:29:51;;;;;;;17.65;14.27;;;15.40;99.90;;;;;;2130632;27;20116;-75
2022/09/12 00:30:52;;;;;;;17.98;14.88;;;15.40;99.90;;;;;;2130683;27;20030;-75
2022/09/12 00:31:52;;;;;;;18.17;14.90;;;15.40;99.90;;;;;;2131944;27;20044;-75
2022/09/12 00:32:53;;;;;;;18.17;15.48;;;15.40;99.90;;;;;;2132081;27;20026;-75
2022/09/12 00:33:56;;;;;;;19.65;15.57;;;15.40;99.90;;;;;;2131853;27;20488;-75
2022/09/12 00:34:57;;;;;;;18.23;15.25;;;15.40;99.90;;;;;;2132173;27;20019;-75
2022/09/12 00:35:57;;;;;;;19.55;14.93;;;15.40;99.90;;;;;;2131403;27;20031;-75
2022/09/12 00:36:58;;;;;;;17.08;13.90;;;15.40;99.90;;;;;;2131091;27;20031;-75
2022/09/12 00:37:59;;;;;;;18.05;14.60;;;15.40;99.90;;;;;;2131297;27;20034;-77
2022/09/12 00:39:00;;;;;;;18.05;14.50;;;15.40;99.90;;;;;;2131891;27;20031;-76
2022/09/12 00:40:01;;;;;;;18.08;15.60;;;15.30;99.90;;;;;;2131071;27;20023;-75
2022/09/12 00:41:01;;;;;;;19.15;15.63;;;15.30;99.90;;;;;;2131354;27;20607;-76
2022/09/12 00:42:02;;;;;;;20.13;15.95;;;15.40;99.90;;;;;;2131352;27;20054;-76
2022/09/12 00:43:03;;;;;;;18.25;15.45;;;15.30;99.90;;;;;;2131744;27;20071;-76
2022/09/12 00:44:22;;;;;;;21.63;16.85;;;15.30;99.90;;;;;;2131726;27;20119;-75
2022/09/12 00:45:27;;;;;;;19.98;15.70;;;15.30;99.90;;;;;;2131104;27;20117;-75
2022/09/12 00:46:42;;;;;;;20.33;15.80;;;15.30;99.90;;;;;;2131075;27;20133;-75
2022/09/12 00:47:43;;;;;;;20.45;16.10;;;15.20;99.90;;;;;;2131468;27;20054;-75
2022/09/12 00:49:02;;;;;;;19.83;15.52;;;15.20;99.90;;;;;;2130863;27;20120;-75
2022/09/12 00:50:08;;;;;;;21.42;16.15;;;15.20;99.90;;;;;;2126862;27;20430;-74
2022/09/12 00:51:09;;;;;;;21.20;15.63;;;15.20;99.90;;;;;;2123422;27;20388;-75
2022/09/12 00:52:22;;;;;;;17.50;14.05;;;15.10;99.90;;;;;;2123131;27;20058;-75
2022/09/12 00:53:23;;;;;;;17.58;14.52;;;15.10;99.90;;;;;;2123247;27;20061;-75
2022/09/12 00:54:31;;;;;;;19.98;15.38;;;15.00;99.90;;;;;;2123088;27;20019;-75
2022/09/12 00:55:39;;;;;;;18.35;14.52;;;15.00;99.90;;;;;;2122619;27;20061;-75
2022/09/12 00:56:42;;;;;;;19.05;15.02;;;15.00;99.90;;;;;;2122304;27;20377;-75
2022/09/12 00:58:06;;;;;;;19.67;15.25;;;15.00;99.90;;;;;;2122270;27;20064;-75
2022/09/12 00:59:18;;;;;;;19.55;15.80;;;14.90;99.90;;;;;;2123008;27;20027;-74
2022/09/12 01:00:22;;;;;;;20.42;15.40;;;14.90;99.90;;;;;;2123451;27;20481;-75
2022/09/12 01:01:23;;;;;;;22.10;16.63;;;14.80;99.90;;;;;;2123147;27;20750;-75
2022/09/12 01:02:25;;;;;;;21.13;16.77;;;14.80;99.90;;;;;;2123055;27;20068;-75
2022/09/12 01:03:25;;;;;;;20.35;16.23;;;14.80;99.90;;;;;;2122755;27;20019;-75
2022/09/12 01:04:27;;;;;;;20.67;16.05;;;14.80;99.90;;;;;;2122710;27;20676;-75
2022/09/12 01:05:32;;;;;;;21.30;16.83;;;14.80;99.90;;;;;;2122530;27;20479;-76
2022/09/12 01:06:37;;;;;;;20.20;15.95;;;14.70;99.90;;;;;;2122785;27;20802;-74
2022/09/12 01:07:39;;;;;;;20.20;15.63;;;14.70;99.90;;;;;;2122467;27;20043;-75
2022/09/12 01:08:42;;;;;;;21.25;16.80;;;14.70;99.90;;;;;;2122629;27;20081;-75
2022/09/12 01:09:44;;;;;;;20.55;16.05;;;14.70;99.90;;;;;;2121674;27;20037;-75
2022/09/12 01:10:45;;;;;;;23.20;17.38;;;14.70;99.90;;;;;;2121574;27;20046;-75
2022/09/12 01:11:48;;;;;;;19.55;16.42;;;14.60;99.90;;;;;;2121521;27;20034;-75
2022/09/12 01:12:49;;;;;;;21.20;16.83;;;14.60;99.90;;;;;;2122185;27;20023;-75
2022/09/12 01:13:50;;;;;;;21.63;17.23;;;14.60;99.90;;;;;;2122643;27;20031;-75
2022/09/12 01:14:50;;;;;;;21.98;17.45;;;14.60;99.90;;;;;;2121808;27;20031;-75
2022/09/12 01:15:53;;;;;;;21.15;17.05;;;14.60;99.90;;;;;;2122460;27;20019;-75
2022/09/12 01:16:53;;;;;;;24.67;18.05;;;14.60;99.90;;;;;;2122597;27;20027;-75
2022/09/12 01:18:06;;;;;;;23.80;18.92;;;14.60;99.90;;;;;;2125601;27;20078;-75
2022/09/12 01:19:19;;;;;;;23.80;18.02;;;14.60;99.90;;;;;;2122205;27;20645;-75
2022/09/12 01:20:40;;;;;;;25.88;18.38;;;14.60;99.90;;;;;;2122768;27;20027;-75
2022/09/12 01:22:10;;;;;;;25.88;19.17;;;14.50;99.90;;;;;;2121955;27;20031;-75
2022/09/12 01:23:44;;;;;;;24.58;17.75;;;14.60;99.90;;;;;;2122734;27;20053;-75
2022/09/12 01:25:20;;;;;;;23.38;17.23;;;14.60;99.90;;;;;;2122537;27;20517;-75
2022/09/12 01:26:41;;;;;;;22.95;17.00;;;14.60;99.90;;;;;;2122854;27;20612;-74
2022/09/12 01:28:05;;;;;;;25.23;17.30;;;14.60;99.90;;;;;;2122739;27;20477;-74
2022/09/12 01:29:19;;;;;;;22.50;17.70;;;14.60;99.90;;;;;;2128689;27;20065;-74
2022/09/12 01:30:41;;;;;;;23.20;18.38;;;14.60;99.90;;;;;;2122021;27;20054;-74
2022/09/12 01:32:00;;;;;;;23.30;18.00;;;14.60;99.90;;;;;;2122261;27;20038;-73
2022/09/12 01:33:29;;;;;;;23.20;17.13;;;14.60;99.90;;;;;;2122422;28;20031;-73
2022/09/12 01:34:56;;;;;;;21.73;16.83;;;14.60;99.90;;;;;;2122513;28;20073;-73
2022/09/12 01:36:06;;;;;;;21.90;16.92;;;14.60;99.90;;;;;;2105759;27;20183;-74
2022/09/12 01:37:24;;;;;;;23.42;16.63;;;14.60;99.90;;;;;;2122736;27;20485;-74
2022/09/12 01:38:52;;;;;;;22.25;16.50;;;14.60;99.90;;;;;;2122793;27;20031;-74
2022/09/12 01:40:40;;;;;;;21.42;17.02;;;14.60;99.90;;;;;;2122372;27;20042;-74
2022/09/12 01:41:47;;;;;;;23.08;18.50;;;14.70;99.90;;;;;;2104233;28;20520;-75
2022/09/12 01:43:09;;;;;;;24.17;17.30;;;14.70;99.90;;;;;;2096326;28;20081;-74
2022/09/12 01:44:35;;;;;;;23.08;18.05;;;14.70;99.90;;;;;;2098652;28;20044;-75
2022/09/12 01:45:48;;;;;;;23.65;17.58;;;14.70;99.90;;;;;;2104610;28;20119;-75
2022/09/12 01:47:19;;;;;;;22.48;17.58;;;14.70;99.90;;;;;;2106480;27;20062;-74
2022/09/12 01:48:27;;;;;;;23.65;17.55;;;14.70;99.90;;;;;;2104089;27;20032;-74
2022/09/12 01:49:41;;;;;;;22.55;17.60;;;14.80;99.90;;;;;;2122475;27;20023;-74
2022/09/12 01:51:25;;;;;;;22.15;17.02;;;14.80;99.90;;;;;;2114055;28;20031;-74
2022/09/12 01:52:48;;;;;;;23.83;16.95;;;14.80;99.90;;;;;;2057265;28;20650;-74
2022/09/12 01:54:12;;;;;;;21.25;16.63;;;14.80;99.90;;;;;;2108745;28;20035;-74
2022/09/12 01:55:18;;;;;;;22.13;17.15;;;14.80;99.90;;;;;;2115280;28;20036;-74
2022/09/12 01:56:28;;;;;;;21.58;16.83;;;14.70;99.90;;;;;;2115433;28;20032;-74
2022/09/12 01:57:43;;;;;;;21.42;16.60;;;14.70;99.90;;;;;;2114639;28;20046;-74
2022/09/12 01:58:57;;;;;;;21.98;17.10;;;14.70;99.90;;;;;;2114782;28;20065;-74
2022/09/12 02:00:03;;;;;;;19.77;15.98;;;14.70;99.90;;;;;;2115005;28;20047;-74
2022/09/12 02:01:24;;;;;;;20.23;16.52;;;14.70;99.90;;;;;;2115003;28;20553;-74
2022/09/12 02:02:35;;;;;;;19.08;15.23;;;14.70;99.90;;;;;;2115096;28;20244;-73
2022/09/12 02:04:03;;;;;;;20.65;16.08;;;14.70;99.90;;;;;;2107902;28;20024;-74
2022/09/12 02:05:09;;;;;;;19.73;15.65;;;14.70;99.90;;;;;;2102118;28;20532;-73
2022/09/12 02:06:23;;;;;;;22.17;16.50;;;14.70;99.90;;;;;;2113253;27;20068;-74
2022/09/12 02:07:50;;;;;;;19.92;16.17;;;14.70;99.90;;;;;;2121917;27;20011;-74
2022/09/12 02:08:55;;;;;;;20.98;16.50;;;14.70;99.90;;;;;;2115692;28;20015;-74
2022/09/12 02:10:15;;;;;;;20.88;16.33;;;14.70;99.90;;;;;;2121263;27;20482;-75
2022/09/12 02:11:18;;;;;;;23.90;17.42;;;14.70;99.90;;;;;;2122624;27;20039;-73
2022/09/12 02:12:24;;;;;;;22.63;16.88;;;14.70;99.90;;;;;;2114984;28;20059;-73
2022/09/12 02:13:37;;;;;;;21.45;16.95;;;14.70;99.90;;;;;;2123597;27;20015;-74
2022/09/12 02:14:47;;;;;;;24.13;18.20;;;14.70;99.90;;;;;;2132621;27;20503;-73
2022/09/12 02:15:55;;;;;;;25.90;19.65;;;14.70;99.90;;;;;;2132383;27;20034;-73
2022/09/12 02:17:13;;;;;;;25.88;19.35;;;14.70;99.90;;;;;;2132636;27;20117;-73
2022/09/12 02:18:17;;;;;;;21.95;16.80;;;14.70;99.90;;;;;;2131998;27;20444;-73
2022/09/12 02:19:23;;;;;;;22.95;17.50;;;14.70;99.90;;;;;;2132054;27;20048;-74
2022/09/12 02:20:27;;;;;;;21.08;16.73;;;14.70;99.90;;;;;;2131985;27;20035;-74
2022/09/12 02:21:31;;;;;;;21.30;16.02;;;14.80;99.90;;;;;;2131941;27;20521;-74
2022/09/12 02:22:36;;;;;;;21.38;16.00;;;14.70;99.90;;;;;;2132017;27;20027;-74
2022/09/12 02:23:42;;;;;;;22.30;16.90;;;14.70;99.90;;;;;;2131784;27;20015;-73
2022/09/12 02:24:47;;;;;;;23.42;17.80;;;14.80;99.90;;;;;;2130933;27;20052;-73
2022/09/12 02:25:52;;;;;;;19.85;16.52;;;14.70;99.90;;;;;;2122994;27;20030;-73
2022/09/12 02:26:57;;;;;;;24.02;18.00;;;14.80;99.90;;;;;;2115095;27;20439;-73
2022/09/12 02:28:03;;;;;;;22.30;17.50;;;14.80;99.90;;;;;;2123036;27;20026;-73
2022/09/12 02:29:04;;;;;;;22.67;16.88;;;14.80;99.90;;;;;;2123186;27;20420;-74
2022/09/12 02:30:06;;;;;;;23.08;16.88;;;14.80;99.90;;;;;;2123711;27;20027;-74
2022/09/12 02:31:26;;;;;;;20.35;16.30;;;14.80;99.90;;;;;;2123348;27;20035;-74
2022/09/12 02:32:35;;;;;;;24.70;18.55;;;14.80;99.90;;;;;;2122883;27;20131;-74
2022/09/12 02:33:48;;;;;;;21.38;16.77;;;14.70;99.90;;;;;;2116108;27;20393;-73
2022/09/12 02:34:59;;;;;;;25.88;19.75;;;14.70;99.90;;;;;;2123030;27;20145;-74
2022/09/12 02:36:22;;;;;;;21.98;17.38;;;14.70;99.90;;;;;;2123541;27;20736;-73
2022/09/12 02:37:43;;;;;;;23.75;17.80;;;14.70;99.90;;;;;;2124310;27;20400;-75
2022/09/12 02:38:45;;;;;;;23.00;17.48;;;14.70;99.90;;;;;;2124039;27;20012;-75
2022/09/12 02:39:46;;;;;;;22.42;17.13;;;14.70;99.90;;;;;;2123809;27;20031;-75
2022/09/12 02:40:46;;;;;;;22.35;16.70;;;14.70;99.90;;;;;;2124078;27;20420;-75
2022/09/12 02:41:51;;;;;;;22.58;16.92;;;14.70;99.90;;;;;;2123865;27;20023;-75
2022/09/12 02:42:52;;;;;;;23.65;17.15;;;14.70;99.90;;;;;;2124138;27;20031;-75
2022/09/12 02:43:52;;;;;;;22.02;17.25;;;14.70;99.90;;;;;;2124224;27;20019;-75
2022/09/12 02:44:55;;;;;;;22.27;17.15;;;14.70;99.90;;;;;;2124089;27;20046;-75
2022/09/12 02:45:56;;;;;;;22.33;18.17;;;14.70;99.90;;;;;;2124252;27;20413;-74
2022/09/12 02:47:06;;;;;;;23.83;17.98;;;14.70;99.90;;;;;;2123657;27;20051;-75
2022/09/12 02:48:36;;;;;;;23.27;17.92;;;14.70;99.90;;;;;;2123678;27;20392;-74
2022/09/12 02:49:37;;;;;;;25.37;19.17;;;14.70;99.90;;;;;;2123744;27;20061;-75
2022/09/12 02:50:38;;;;;;;25.25;18.90;;;14.70;99.90;;;;;;2132063;27;20256;-75
2022/09/12 02:51:39;;;;;;;22.35;17.55;;;14.60;99.90;;;;;;2123220;27;20058;-75
2022/09/12 02:52:42;;;;;;;22.92;17.63;;;14.60;99.90;;;;;;2132079;27;20069;-75
2022/09/12 02:53:43;;;;;;;22.40;17.17;;;14.60;99.90;;;;;;2131935;27;20031;-75
2022/09/12 02:54:44;;;;;;;23.15;17.27;;;14.60;99.90;;;;;;2123197;27;20028;-75
2022/09/12 02:55:45;;;;;;;23.10;18.15;;;14.60;99.90;;;;;;2132176;27;20150;-76
2022/09/12 02:56:46;;;;;;;23.23;17.42;;;14.60;99.90;;;;;;2123148;27;20045;-75
2022/09/12 02:57:47;;;;;;;22.33;17.20;;;14.60;99.90;;;;;;2123389;27;20027;-75
2022/09/12 02:58:48;;;;;;;21.10;16.80;;;14.60;99.90;;;;;;2131855;27;20076;-75
2022/09/12 02:59:51;;;;;;;25.02;19.15;;;14.60;99.90;;;;;;2132132;27;20031;-75
2022/09/12 03:01:11;;;;;;;22.25;17.55;;;14.60;99.90;;;;;;2132622;27;20088;-75
2022/09/12 03:02:31;;;;;;;24.10;17.95;;;14.60;99.90;;;;;;2131706;27;20030;-75
2022/09/12 03:03:58;;;;;;;21.90;16.75;;;14.70;99.90;;;;;;2131542;27;20113;-75
2022/09/12 03:05:23;;;;;;;23.17;17.05;;;14.60;99.90;;;;;;2131850;27;20027;-75
2022/09/12 03:06:39;;;;;;;24.60;18.48;;;14.60;99.90;;;;;;2110886;27;20035;-75
2022/09/12 03:07:52;;;;;;;23.80;17.95;;;14.60;99.90;;;;;;2123161;27;20023;-75
2022/09/12 03:09:09;;;;;;;22.05;17.27;;;14.60;99.90;;;;;;2123799;27;20029;-75
2022/09/12 03:10:15;;;;;;;23.83;18.33;;;14.60;99.90;;;;;;2123934;27;20035;-75
2022/09/12 03:11:54;;;;;;;25.08;19.23;;;14.60;99.90;;;;;;2122529;27;20030;-75
2022/09/12 03:13:03;;;;;;;26.05;19.15;;;14.60;99.90;;;;;;2123905;27;20031;-75
2022/09/12 03:14:03;;;;;;;28.63;20.70;;;14.60;99.90;;;;;;2123538;27;20038;-75
2022/09/12 03:15:30;;;;;;;25.98;19.35;;;14.60;99.90;;;;;;2123904;27;20026;-75
2022/09/12 03:16:53;;;;;;;24.00;17.83;;;14.60;99.90;;;;;;2122604;27;20031;-74
2022/09/12 03:18:11;;;;;;;24.98;18.45;;;14.50;99.90;;;;;;2123113;27;20011;-74
2022/09/12 03:19:32;;;;;;;21.33;17.23;;;14.50;99.90;;;;;;2123135;27;20153;-74
2022/09/12 03:20:43;;;;;;;23.88;18.23;;;14.50;99.90;;;;;;2123400;27;20065;-74
2022/09/12 03:21:44;;;;;;;25.98;18.98;;;14.50;99.90;;;;;;2126284;27;20384;-74
2022/09/12 03:23:08;;;;;;;23.17;17.85;;;14.50;99.90;;;;;;2128541;27;20031;-74
2022/09/12 03:24:28;;;;;;;23.52;18.60;;;14.50;99.90;;;;;;2122726;27;20147;-75
2022/09/12 03:25:52;;;;;;;23.75;18.45;;;14.50;99.90;;;;;;2123385;27;20049;-75
2022/09/12 03:26:55;;;;;;;24.67;17.75;;;14.40;99.90;;;;;;2123041;27;20023;-75
2022/09/12 03:28:09;;;;;;;24.50;17.67;;;14.40;99.90;;;;;;2122720;27;20096;-75
2022/09/12 03:29:12;;;;;;;22.63;17.58;;;14.40;99.90;;;;;;2123099;27;20030;-74
2022/09/12 03:30:12;;;;;;;25.52;19.27;;;14.40;99.90;;;;;;2123852;27;20113;-75
2022/09/12 03:31:16;;;;;;;25.13;18.75;;;14.40;99.90;;;;;;2123704;27;20038;-74
2022/09/12 03:32:16;;;;;;;23.77;18.67;;;14.40;99.90;;;;;;2124016;27;20045;-74
2022/09/12 03:33:22;;;;;;;24.40;18.58;;;14.40;99.90;;;;;;2122798;27;20115;-75
2022/09/12 03:34:25;;;;;;;24.38;18.38;;;14.50;99.90;;;;;;2123218;27;20472;-75
2022/09/12 03:35:26;;;;;;;24.92;19.30;;;14.40;99.90;;;;;;2123211;27;20088;-75
2022/09/12 03:36:28;;;;;;;25.08;18.73;;;14.50;99.90;;;;;;2123532;27;20084;-74
2022/09/12 03:37:29;;;;;;;24.45;17.95;;;14.50;99.90;;;;;;2122719;27;20125;-74
2022/09/12 03:38:30;;;;;;;23.52;18.00;;;14.40;99.90;;;;;;2122421;27;20042;-75
2022/09/12 03:39:30;;;;;;;24.65;18.25;;;14.50;99.90;;;;;;2123552;27;20053;-75
2022/09/12 03:40:31;;;;;;;24.85;18.83;;;14.50;99.90;;;;;;2122779;27;20026;-75
2022/09/12 03:41:32;;;;;;;25.95;18.30;;;14.50;99.90;;;;;;2122382;27;20106;-76
2022/09/12 03:42:33;;;;;;;22.98;17.38;;;14.50;99.90;;;;;;2122412;27;20122;-75
2022/09/12 03:43:34;;;;;;;24.33;18.17;;;14.50;99.90;;;;;;2123078;27;20023;-75
2022/09/12 03:44:34;;;;;;;26.73;19.60;;;14.50;99.90;;;;;;2123235;27;20015;-75
2022/09/12 03:45:36;;;;;;;25.10;18.83;;;14.50;99.90;;;;;;2114325;28;20023;-73
2022/09/12 03:46:36;;;;;;;26.90;19.90;;;14.50;99.90;;;;;;2114027;27;20494;-73
2022/09/12 03:47:37;;;;;;;23.70;18.20;;;14.50;99.90;;;;;;2114410;28;20027;-74
2022/09/12 03:48:38;;;;;;;24.67;18.48;;;14.50;99.90;;;;;;2123071;27;20517;-73
2022/09/12 03:49:39;;;;;;;26.90;19.42;;;14.50;99.90;;;;;;2123337;27;20015;-74
2022/09/12 03:50:40;;;;;;;26.00;19.08;;;14.60;99.90;;;;;;2123408;27;20053;-73
2022/09/12 03:51:42;;;;;;;24.27;18.85;;;14.60;99.90;;;;;;2122958;27;20042;-73
2022/09/12 03:52:42;;;;;;;24.23;18.75;;;14.50;99.90;;;;;;2123367;27;20864;-73
2022/09/12 03:53:43;;;;;;;24.42;18.67;;;14.50;99.90;;;;;;2123332;27;20091;-74
2022/09/12 03:54:43;;;;;;;22.15;17.83;;;14.50;99.90;;;;;;2122711;27;20035;-75
2022/09/12 03:55:44;;;;;;;24.73;18.75;;;14.50;99.90;;;;;;2114761;28;20115;-74
2022/09/12 03:56:45;;;;;;;23.98;18.30;;;14.50;99.90;;;;;;2122878;27;20051;-75
2022/09/12 03:57:45;;;;;;;24.13;18.50;;;14.60;99.90;;;;;;2123331;27;20057;-75
2022/09/12 03:58:46;;;;;;;24.95;18.50;;;14.50;99.90;;;;;;2122170;27;20019;-75
2022/09/12 03:59:50;;;;;;;23.60;17.80;;;14.50;99.90;;;;;;2113808;28;20168;-75
2022/09/12 04:00:50;;;;;;;22.65;17.88;;;14.50;99.90;;;;;;2122578;27;20055;-75
2022/09/12 04:01:51;;;;;;;24.85;18.83;;;14.50;99.90;;;;;;2122964;27;20088;-75
2022/09/12 04:02:54;;;;;;;25.23;18.63;;;14.50;99.90;;;;;;2122756;27;20130;-75
2022/09/12 04:03:55;;;;;;;27.15;19.67;;;14.50;99.90;;;;;;2122627;27;20073;-76
2022/09/12 04:04:55;;;;;;;26.33;19.58;;;14.50;99.90;;;;;;2122745;27;20507;-75
2022/09/12 04:05:56;;;;;;;26.00;19.58;;;14.50;99.90;;;;;;2122412;27;20625;-76
2022/09/12 04:06:57;;;;;;;27.15;20.48;;;14.50;99.90;;;;;;2122634;27;20053;-75
2022/09/12 04:07:58;;;;;;;25.92;19.15;;;14.50;99.90;;;;;;2122951;27;20489;-77
2022/09/12 04:08:58;;;;;;;26.33;18.48;;;14.40;99.90;;;;;;2123444;27;20023;-77
2022/09/12 04:09:59;;;;;;;25.98;19.45;;;14.40;99.90;;;;;;2123581;27;20046;-76
2022/09/12 04:11:05;;;;;;;28.42;20.88;;;14.40;99.90;;;;;;2122779;27;20043;-76
2022/09/12 04:12:06;;;;;;;28.52;20.75;;;14.40;99.90;;;;;;2122938;27;20042;-76
2022/09/12 04:13:06;;;;;;;27.67;20.25;;;14.40;99.90;;;;;;2123647;27;20023;-76
2022/09/12 04:14:07;;;;;;;28.30;20.17;;;14.40;99.90;;;;;;2123158;27;20497;-75
2022/09/12 04:15:09;;;;;;;28.08;20.98;;;14.40;99.90;;;;;;2122872;27;20069;-76
2022/09/12 04:16:10;;;;;;;28.30;20.30;;;14.40;99.90;;;;;;2123498;27;20110;-76
2022/09/12 04:17:11;;;;;;;27.10;20.05;;;14.40;99.90;;;;;;2123390;27;20609;-76
2022/09/12 04:18:12;;;;;;;26.58;18.38;;;14.40;99.90;;;;;;2123624;27;20031;-75
2022/09/12 04:19:12;;;;;;;24.50;18.95;;;14.40;99.90;;;;;;2124126;27;20023;-75
2022/09/12 04:20:13;;;;;;;24.85;19.05;;;14.40;99.90;;;;;;2131070;27;20026;-76
2022/09/12 04:21:17;;;;;;;25.77;19.58;;;14.40;99.90;;;;;;2131840;27;20083;-77
2022/09/12 04:22:17;;;;;;;26.08;19.88;;;14.40;99.90;;;;;;2132810;27;20023;-76
2022/09/12 04:23:19;;;;;;;27.33;20.42;;;14.40;99.90;;;;;;2132729;27;20019;-76
2022/09/12 04:24:19;;;;;;;29.08;20.27;;;14.50;99.90;;;;;;2132113;27;20027;-76
2022/09/12 04:25:20;;;;;;;26.23;19.92;;;14.40;99.90;;;;;;2132412;27;20067;-76
2022/09/12 04:26:21;;;;;;;27.65;19.45;;;14.40;99.90;;;;;;2132226;27;20120;-76
2022/09/12 04:27:21;;;;;;;26.10;19.52;;;14.40;99.90;;;;;;2132308;27;20381;-75
2022/09/12 04:28:23;;;;;;;27.35;20.45;;;14.40;99.90;;;;;;2133605;27;20023;-75
2022/09/12 04:29:24;;;;;;;27.13;20.00;;;14.40;99.90;;;;;;2134859;27;20069;-76
2022/09/12 04:30:25;;;;;;;27.73;20.13;;;14.40;99.90;;;;;;2125848;27;20593;-76
2022/09/12 04:31:26;;;;;;;27.48;19.88;;;14.40;99.90;;;;;;2125913;27;20495;-75
2022/09/12 04:32:27;;;;;;;27.23;20.08;;;14.40;99.90;;;;;;2136298;27;20026;-77
2022/09/12 04:33:28;;;;;;;26.45;19.83;;;14.40;99.90;;;;;;2136082;27;20034;-76
2022/09/12 04:34:30;;;;;;;29.60;20.70;;;14.40;99.90;;;;;;2135101;27;20828;-76
2022/09/12 04:35:34;;;;;;;26.25;19.42;;;14.50;99.90;;;;;;2126388;27;20110;-75
2022/09/12 04:36:35;;;;;;;27.00;20.35;;;14.40;99.90;;;;;;2134839;27;20381;-76
2022/09/12 04:37:36;;;;;;;29.13;20.55;;;14.40;99.90;;;;;;2133718;27;20160;-77
2022/09/12 04:38:37;;;;;;;27.20;20.40;;;14.40;99.90;;;;;;2131615;27;20047;-76
2022/09/12 04:39:38;;;;;;;28.67;21.05;;;14.40;99.90;;;;;;2132060;27;20022;-76
2022/09/12 04:40:39;;;;;;;26.58;19.15;;;14.40;99.90;;;;;;2131775;27;20038;-76
2022/09/12 04:41:40;;;;;;;29.58;20.52;;;14.40;99.90;;;;;;2131561;27;20023;-76
2022/09/12 04:42:41;;;;;;;30.15;20.92;;;14.40;99.90;;;;;;2122711;27;20412;-76
2022/09/12 04:43:42;;;;;;;32.58;23.13;;;14.40;99.90;;;;;;2122929;27;20024;-76
2022/09/12 04:44:43;;;;;;;33.75;23.38;;;14.40;99.90;;;;;;2131231;27;20357;-75
2022/09/12 04:45:44;;;;;;;30.73;23.20;;;14.40;99.90;;;;;;2131853;27;20029;-77
2022/09/12 04:46:46;;;;;;;29.55;22.10;;;14.40;99.90;;;;;;2131609;27;20083;-76
2022/09/12 04:47:47;;;;;;;29.00;21.83;;;14.40;99.90;;;;;;2132016;27;20061;-77
2022/09/12 04:48:48;;;;;;;27.90;20.55;;;14.40;99.90;;;;;;2130800;27;20054;-76
2022/09/12 04:49:50;;;;;;;30.30;23.02;;;14.50;99.90;;;;;;2128576;27;20030;-76
2022/09/12 04:50:50;;;;;;;31.73;22.88;;;14.50;99.90;;;;;;2123303;27;20035;-76
2022/09/12 04:51:53;;;;;;;27.60;20.58;;;14.50;99.90;;;;;;2122601;27;20059;-76
2022/09/12 04:52:54;;;;;;;28.33;20.90;;;14.40;99.90;;;;;;2123013;27;20152;-76
2022/09/12 04:53:58;;;;;;;26.85;20.05;;;14.50;99.90;;;;;;2122185;27;20064;-76
2022/09/12 04:54:59;;;;;;;29.20;21.60;;;14.50;99.90;;;;;;2122024;27;20045;-75
2022/09/12 04:56:04;;;;;;;35.55;23.88;;;14.50;99.90;;;;;;2122933;27;20389;-74
2022/09/12 04:57:05;;;;;;;36.33;24.33;;;14.50;99.90;;;;;;2122929;27;20025;-75
2022/09/12 04:58:05;;;;;;;28.45;21.15;;;14.50;99.90;;;;;;2113106;28;20032;-75
2022/09/12 04:59:07;;;;;;;30.58;21.15;;;14.50;99.90;;;;;;2113467;28;20051;-75
2022/09/12 05:00:13;;;;;;;29.65;21.75;;;14.50;99.90;;;;;;2122846;27;20031;-75
2022/09/12 05:01:16;;;;;;;29.75;21.48;;;14.60;99.90;;;;;;2123136;27;20703;-75
2022/09/12 05:02:17;;;;;;;26.33;19.58;;;14.60;99.90;;;;;;2122584;27;20027;-75
2022/09/12 05:03:18;;;;;;;33.97;23.65;;;14.60;99.90;;;;;;2131250;27;20027;-75
2022/09/12 05:04:18;;;;;;;29.13;21.55;;;14.60;99.90;;;;;;2131012;27;20023;-75
2022/09/12 05:05:19;;;;;;;31.63;22.45;;;14.60;99.90;;;;;;2130709;27;20034;-76
2022/09/12 05:06:22;;;;;;;26.42;20.27;;;14.60;99.90;;;;;;2131136;27;20019;-76
2022/09/12 05:07:23;;;;;;;27.55;20.83;;;14.60;99.90;;;;;;2131465;27;20027;-76
2022/09/12 05:08:24;;;;;;;28.40;21.02;;;14.60;99.90;;;;;;2131287;27;20065;-76
2022/09/12 05:09:25;;;;;;;28.20;20.35;;;14.60;99.90;;;;;;2130661;27;20072;-76
2022/09/12 05:10:27;;;;;;;28.98;20.20;;;14.60;99.90;;;;;;2130840;27;20023;-75
2022/09/12 05:11:30;;;;;;;26.85;20.20;;;14.60;99.90;;;;;;2131530;27;20383;-76
2022/09/12 05:12:31;;;;;;;26.45;19.95;;;14.70;99.90;;;;;;2131144;27;20018;-76
2022/09/12 05:13:32;;;;;;;26.35;19.30;;;14.70;99.90;;;;;;2129433;27;20110;-76
2022/09/12 05:14:33;;;;;;;26.38;19.05;;;14.70;99.90;;;;;;2122813;27;20023;-76
2022/09/12 05:15:34;;;;;;;25.85;18.67;;;14.70;99.90;;;;;;2123080;27;20026;-76
2022/09/12 05:16:35;;;;;;;26.15;20.10;;;14.70;99.90;;;;;;2113595;28;20027;-76
2022/09/12 05:17:35;;;;;;;31.42;22.85;;;14.70;99.90;;;;;;2114059;28;20083;-76
2022/09/12 05:18:36;;;;;;;28.40;20.05;;;14.70;99.90;;;;;;2122917;27;20023;-76
2022/09/12 05:19:38;;;;;;;25.77;18.92;;;14.70;99.90;;;;;;2123136;27;20061;-76
2022/09/12 05:20:39;;;;;;;24.38;18.92;;;14.70;99.90;;;;;;2122285;27;20544;-76
2022/09/12 05:21:39;;;;;;;25.85;19.25;;;14.80;99.90;;;;;;2122395;27;20477;-76
2022/09/12 05:22:40;;;;;;;30.20;22.08;;;14.80;99.90;;;;;;2122736;27;20030;-76
2022/09/12 05:23:41;;;;;;;27.67;20.42;;;14.80;99.90;;;;;;2123276;27;20027;-76
2022/09/12 05:24:43;;;;;;;26.73;20.35;;;14.80;99.90;;;;;;2122942;27;20039;-75
2022/09/12 05:25:51;;;;;;;27.85;20.33;;;14.80;99.90;;;;;;2122553;27;20126;-75
2022/09/12 05:26:52;;;;;;;28.15;20.83;;;14.80;99.90;;;;;;2122048;27;20074;-76
2022/09/12 05:27:52;;;;;;;26.10;20.05;;;14.90;99.90;;;;;;2121566;27;20473;-76
2022/09/12 05:28:54;;;;;;;27.83;20.75;;;14.90;99.90;;;;;;2112992;28;20063;-76
2022/09/12 05:29:54;;;;;;;25.27;19.45;;;14.90;99.90;;;;;;2121998;27;20031;-76
2022/09/12 05:31:05;;;;;;;24.20;17.90;;;14.80;99.90;;;;;;2122761;27;20435;-75
2022/09/12 05:32:05;;;;;;;24.63;18.60;;;14.90;99.90;;;;;;2122472;27;20115;-76
2022/09/12 05:33:06;;;;;;;25.48;18.73;;;14.90;99.90;;;;;;2122079;28;20035;-76
2022/09/12 05:34:08;;;;;;;24.00;18.65;;;14.90;99.90;;;;;;2122497;27;20050;-74
2022/09/12 05:35:08;;;;;;;25.88;19.98;;;14.90;99.90;;;;;;2122443;28;20497;-75